Mc Farland, California
Current Conditions -  °F | °C
As of 11:38 PM on Sunday 21 Dec 2014 (Local Time) from KBFL Reporting Station
Broken Clouds Broken Clouds  
Wind Chill: 56°   Ceiling: 4100
Heat Index: 56°   Visibility: 9mi
Dew Point: 52°   Wind: 3mph
Humidity: 87%   Direction: 100°E
Pressure: 30.26"   Gusts: NA
Location:  35.638°N, 119.198°W
Report Text: KBFL 220738Z AUTO 10003KT 9SM SCT010 BKN041 13/11 A3026 RMK AO2 T01330111
Loading
Personal Weather Stations






























Interactive Weather Map New forecast layout! Learn more

10-Day Weather Forecast

Advertisements
Track Severe Weather on mobile